sensor_id;sensor_type;location;lat;lon;timestamp;P1;durP1;ratioP1;P2;durP2;ratioP2
72125;SDS011;59999;51.676;22.650;2023-07-09T00:01:45;15.03;;;9.37;;
72125;SDS011;59999;51.676;22.650;2023-07-09T00:04:11;14.98;;;9.48;;
72125;SDS011;59999;51.676;22.650;2023-07-09T00:06:37;18.60;;;11.15;;
72125;SDS011;59999;51.676;22.650;2023-07-09T00:09:05;15.93;;;9.73;;
72125;SDS011;59999;51.676;22.650;2023-07-09T00:11:32;14.48;;;9.82;;
72125;SDS011;59999;51.676;22.650;2023-07-09T00:13:58;16.37;;;10.13;;
72125;SDS011;59999;51.676;22.650;2023-07-09T00:16:25;15.68;;;10.73;;
72125;SDS011;59999;51.676;22.650;2023-07-09T00:18:51;16.25;;;10.20;;
72125;SDS011;59999;51.676;22.650;2023-07-09T00:21:18;19.30;;;9.43;;
72125;SDS011;59999;51.676;22.650;2023-07-09T00:23:48;15.48;;;10.13;;
72125;SDS011;59999;51.676;22.650;2023-07-09T00:26:15;17.37;;;10.40;;
72125;SDS011;59999;51.676;22.650;2023-07-09T00:28:42;16.27;;;10.45;;
72125;SDS011;59999;51.676;22.650;2023-07-09T00:31:12;15.43;;;9.95;;
72125;SDS011;59999;51.676;22.650;2023-07-09T00:33:40;17.33;;;10.20;;
72125;SDS011;59999;51.676;22.650;2023-07-09T00:36:11;21.02;;;10.98;;
72125;SDS011;59999;51.676;22.650;2023-07-09T00:38:41;22.00;;;11.93;;
72125;SDS011;59999;51.676;22.650;2023-07-09T00:41:14;18.88;;;11.00;;
72125;SDS011;59999;51.676;22.650;2023-07-09T00:43:45;18.73;;;11.23;;
72125;SDS011;59999;51.676;22.650;2023-07-09T00:48:54;18.38;;;11.77;;
72125;SDS011;59999;51.676;22.650;2023-07-09T00:51:25;18.27;;;11.43;;
72125;SDS011;59999;51.676;22.650;2023-07-09T00:53:55;17.58;;;11.68;;
72125;SDS011;59999;51.676;22.650;2023-07-09T00:56:30;19.00;;;11.32;;
72125;SDS011;59999;51.676;22.650;2023-07-09T00:59:04;19.58;;;11.40;;
72125;SDS011;59999;51.676;22.650;2023-07-09T01:01:36;16.83;;;10.93;;
72125;SDS011;59999;51.676;22.650;2023-07-09T01:04:06;15.47;;;10.30;;
72125;SDS011;59999;51.676;22.650;2023-07-09T01:06:36;18.70;;;11.23;;
72125;SDS011;59999;51.676;22.650;2023-07-09T01:09:06;20.85;;;11.98;;
72125;SDS011;59999;51.676;22.650;2023-07-09T01:11:33;19.63;;;11.27;;
72125;SDS011;59999;51.676;22.650;2023-07-09T01:14:00;20.17;;;11.60;;
72125;SDS011;59999;51.676;22.650;2023-07-09T01:16:31;19.37;;;10.87;;
72125;SDS011;59999;51.676;22.650;2023-07-09T01:19:08;19.75;;;11.25;;
72125;SDS011;59999;51.676;22.650;2023-07-09T01:21:34;17.90;;;11.50;;
72125;SDS011;59999;51.676;22.650;2023-07-09T01:24:13;18.27;;;10.85;;
72125;SDS011;59999;51.676;22.650;2023-07-09T01:27:03;20.60;;;12.23;;
72125;SDS011;59999;51.676;22.650;2023-07-09T01:29:30;19.90;;;12.43;;
72125;SDS011;59999;51.676;22.650;2023-07-09T01:31:59;19.75;;;12.00;;
72125;SDS011;59999;51.676;22.650;2023-07-09T01:34:25;20.67;;;12.40;;
72125;SDS011;59999;51.676;22.650;2023-07-09T01:36:51;18.57;;;11.60;;
72125;SDS011;59999;51.676;22.650;2023-07-09T01:39:19;19.83;;;11.88;;
72125;SDS011;59999;51.676;22.650;2023-07-09T01:41:44;20.48;;;11.80;;
72125;SDS011;59999;51.676;22.650;2023-07-09T01:44:13;17.45;;;11.32;;
72125;SDS011;59999;51.676;22.650;2023-07-09T01:46:39;19.80;;;11.07;;
72125;SDS011;59999;51.676;22.650;2023-07-09T01:49:05;21.33;;;12.15;;
72125;SDS011;59999;51.676;22.650;2023-07-09T01:51:32;19.75;;;12.15;;
72125;SDS011;59999;51.676;22.650;2023-07-09T01:53:59;19.30;;;11.70;;
72125;SDS011;59999;51.676;22.650;2023-07-09T01:56:25;18.03;;;11.93;;
72125;SDS011;59999;51.676;22.650;2023-07-09T01:58:51;20.55;;;11.93;;
72125;SDS011;59999;51.676;22.650;2023-07-09T02:01:17;17.75;;;11.20;;
72125;SDS011;59999;51.676;22.650;2023-07-09T02:03:45;19.08;;;11.52;;
72125;SDS011;59999;51.676;22.650;2023-07-09T02:06:11;17.50;;;11.23;;
72125;SDS011;59999;51.676;22.650;2023-07-09T02:08:38;19.67;;;11.38;;
72125;SDS011;59999;51.676;22.650;2023-07-09T02:11:04;17.38;;;10.73;;
72125;SDS011;59999;51.676;22.650;2023-07-09T02:13:30;17.77;;;11.20;;
72125;SDS011;59999;51.676;22.650;2023-07-09T02:15:56;18.65;;;11.77;;
72125;SDS011;59999;51.676;22.650;2023-07-09T02:18:22;18.10;;;11.90;;
72125;SDS011;59999;51.676;22.650;2023-07-09T02:20:47;19.70;;;11.93;;
72125;SDS011;59999;51.676;22.650;2023-07-09T02:23:14;21.80;;;11.23;;
72125;SDS011;59999;51.676;22.650;2023-07-09T02:25:39;20.00;;;11.38;;
72125;SDS011;59999;51.676;22.650;2023-07-09T02:28:06;17.85;;;11.20;;
72125;SDS011;59999;51.676;22.650;2023-07-09T02:30:31;17.47;;;10.47;;
72125;SDS011;59999;51.676;22.650;2023-07-09T02:32:57;19.25;;;10.27;;
72125;SDS011;59999;51.676;22.650;2023-07-09T02:35:23;20.57;;;10.70;;
72125;SDS011;59999;51.676;22.650;2023-07-09T02:37:49;19.48;;;10.88;;
72125;SDS011;59999;51.676;22.650;2023-07-09T02:40:15;22.05;;;11.82;;
72125;SDS011;59999;51.676;22.650;2023-07-09T02:42:42;21.17;;;12.70;;
72125;SDS011;59999;51.676;22.650;2023-07-09T02:45:08;20.90;;;12.73;;
72125;SDS011;59999;51.676;22.650;2023-07-09T02:47:35;22.77;;;12.43;;
72125;SDS011;59999;51.676;22.650;2023-07-09T02:50:01;20.85;;;12.60;;
72125;SDS011;59999;51.676;22.650;2023-07-09T02:52:27;20.90;;;12.77;;
72125;SDS011;59999;51.676;22.650;2023-07-09T02:54:53;20.30;;;12.27;;
72125;SDS011;59999;51.676;22.650;2023-07-09T02:57:19;19.48;;;11.23;;
72125;SDS011;59999;51.676;22.650;2023-07-09T02:59:44;16.97;;;11.60;;
72125;SDS011;59999;51.676;22.650;2023-07-09T03:02:10;18.58;;;12.00;;
72125;SDS011;59999;51.676;22.650;2023-07-09T03:04:36;20.13;;;13.13;;
72125;SDS011;59999;51.676;22.650;2023-07-09T03:07:02;19.67;;;12.43;;
72125;SDS011;59999;51.676;22.650;2023-07-09T03:09:29;19.23;;;11.27;;
72125;SDS011;59999;51.676;22.650;2023-07-09T03:11:55;18.90;;;11.93;;
72125;SDS011;59999;51.676;22.650;2023-07-09T03:14:21;18.92;;;12.13;;
72125;SDS011;59999;51.676;22.650;2023-07-09T03:16:48;22.63;;;11.20;;
72125;SDS011;59999;51.676;22.650;2023-07-09T03:19:13;18.97;;;12.07;;
72125;SDS011;59999;51.676;22.650;2023-07-09T03:21:39;21.95;;;12.07;;
72125;SDS011;59999;51.676;22.650;2023-07-09T03:24:05;22.65;;;13.55;;
72125;SDS011;59999;51.676;22.650;2023-07-09T03:26:32;22.35;;;14.10;;
72125;SDS011;59999;51.676;22.650;2023-07-09T03:28:58;23.67;;;14.20;;
72125;SDS011;59999;51.676;22.650;2023-07-09T03:31:24;22.40;;;14.13;;
72125;SDS011;59999;51.676;22.650;2023-07-09T03:33:51;24.07;;;15.10;;
72125;SDS011;59999;51.676;22.650;2023-07-09T03:36:17;22.45;;;13.85;;
72125;SDS011;59999;51.676;22.650;2023-07-09T03:38:45;22.17;;;14.20;;
72125;SDS011;59999;51.676;22.650;2023-07-09T03:41:11;24.80;;;14.90;;
72125;SDS011;59999;51.676;22.650;2023-07-09T03:43:37;23.43;;;13.90;;
72125;SDS011;59999;51.676;22.650;2023-07-09T03:46:03;20.90;;;14.80;;
72125;SDS011;59999;51.676;22.650;2023-07-09T03:48:29;23.00;;;14.60;;
72125;SDS011;59999;51.676;22.650;2023-07-09T03:50:55;24.30;;;14.30;;
72125;SDS011;59999;51.676;22.650;2023-07-09T03:53:21;21.77;;;14.63;;
72125;SDS011;59999;51.676;22.650;2023-07-09T03:55:50;25.67;;;16.02;;
72125;SDS011;59999;51.676;22.650;2023-07-09T03:58:18;24.33;;;15.13;;
72125;SDS011;59999;51.676;22.650;2023-07-09T04:00:44;26.30;;;15.93;;
72125;SDS011;59999;51.676;22.650;2023-07-09T04:03:10;24.70;;;14.93;;
72125;SDS011;59999;51.676;22.650;2023-07-09T04:05:37;23.98;;;15.05;;
72125;SDS011;59999;51.676;22.650;2023-07-09T04:08:03;22.58;;;14.43;;
72125;SDS011;59999;51.676;22.650;2023-07-09T04:10:30;23.42;;;14.20;;
72125;SDS011;59999;51.676;22.650;2023-07-09T04:12:56;24.67;;;14.80;;
72125;SDS011;59999;51.676;22.650;2023-07-09T04:15:22;21.52;;;14.40;;
72125;SDS011;59999;51.676;22.650;2023-07-09T04:17:47;21.60;;;12.88;;
72125;SDS011;59999;51.676;22.650;2023-07-09T04:20:13;21.77;;;13.60;;
72125;SDS011;59999;51.676;22.650;2023-07-09T04:22:39;24.67;;;13.90;;
72125;SDS011;59999;51.676;22.650;2023-07-09T04:25:06;18.98;;;13.55;;
72125;SDS011;59999;51.676;22.650;2023-07-09T04:27:35;20.23;;;13.60;;
72125;SDS011;59999;51.676;22.650;2023-07-09T04:30:02;23.37;;;14.20;;
72125;SDS011;59999;51.676;22.650;2023-07-09T04:32:30;20.20;;;13.27;;
72125;SDS011;59999;51.676;22.650;2023-07-09T04:34:56;19.77;;;13.85;;
72125;SDS011;59999;51.676;22.650;2023-07-09T04:37:23;21.83;;;13.27;;
72125;SDS011;59999;51.676;22.650;2023-07-09T04:39:49;23.23;;;13.43;;
72125;SDS011;59999;51.676;22.650;2023-07-09T04:42:16;19.80;;;12.80;;
72125;SDS011;59999;51.676;22.650;2023-07-09T04:44:43;19.65;;;13.45;;
72125;SDS011;59999;51.676;22.650;2023-07-09T04:47:10;20.70;;;12.32;;
72125;SDS011;59999;51.676;22.650;2023-07-09T04:49:38;22.90;;;13.90;;
72125;SDS011;59999;51.676;22.650;2023-07-09T04:52:04;19.07;;;13.13;;
72125;SDS011;59999;51.676;22.650;2023-07-09T04:54:30;20.60;;;12.40;;
72125;SDS011;59999;51.676;22.650;2023-07-09T04:56:56;16.17;;;11.73;;
72125;SDS011;59999;51.676;22.650;2023-07-09T04:59:22;20.25;;;12.15;;
72125;SDS011;59999;51.676;22.650;2023-07-09T05:01:49;17.58;;;12.32;;
72125;SDS011;59999;51.676;22.650;2023-07-09T05:04:15;20.23;;;12.40;;
72125;SDS011;59999;51.676;22.650;2023-07-09T05:06:41;17.75;;;11.98;;
72125;SDS011;59999;51.676;22.650;2023-07-09T05:09:07;16.47;;;12.37;;
72125;SDS011;59999;51.676;22.650;2023-07-09T05:11:34;18.35;;;11.48;;
72125;SDS011;59999;51.676;22.650;2023-07-09T05:14:02;18.02;;;11.98;;
72125;SDS011;59999;51.676;22.650;2023-07-09T05:16:29;17.20;;;11.82;;
72125;SDS011;59999;51.676;22.650;2023-07-09T05:18:55;14.43;;;11.00;;
72125;SDS011;59999;51.676;22.650;2023-07-09T05:21:21;16.87;;;11.13;;
72125;SDS011;59999;51.676;22.650;2023-07-09T05:23:47;14.70;;;10.75;;
72125;SDS011;59999;51.676;22.650;2023-07-09T05:26:13;15.18;;;11.18;;
72125;SDS011;59999;51.676;22.650;2023-07-09T05:28:39;16.33;;;11.03;;
72125;SDS011;59999;51.676;22.650;2023-07-09T05:31:05;15.98;;;10.65;;
72125;SDS011;59999;51.676;22.650;2023-07-09T05:33:31;16.58;;;10.55;;
72125;SDS011;59999;51.676;22.650;2023-07-09T05:35:57;15.93;;;9.50;;
72125;SDS011;59999;51.676;22.650;2023-07-09T05:38:23;14.27;;;9.13;;
72125;SDS011;59999;51.676;22.650;2023-07-09T05:40:58;13.57;;;8.85;;
72125;SDS011;59999;51.676;22.650;2023-07-09T05:43:25;14.80;;;9.45;;
72125;SDS011;59999;51.676;22.650;2023-07-09T05:45:52;16.63;;;9.37;;
72125;SDS011;59999;51.676;22.650;2023-07-09T05:48:18;12.35;;;8.40;;
72125;SDS011;59999;51.676;22.650;2023-07-09T05:50:44;11.55;;;8.55;;
72125;SDS011;59999;51.676;22.650;2023-07-09T05:53:10;12.77;;;8.70;;
72125;SDS011;59999;51.676;22.650;2023-07-09T05:55:36;14.47;;;9.13;;
72125;SDS011;59999;51.676;22.650;2023-07-09T05:58:02;11.77;;;8.27;;
72125;SDS011;59999;51.676;22.650;2023-07-09T06:00:28;14.00;;;8.00;;
72125;SDS011;59999;51.676;22.650;2023-07-09T06:02:54;13.00;;;7.47;;
72125;SDS011;59999;51.676;22.650;2023-07-09T06:05:20;10.97;;;7.40;;
72125;SDS011;59999;51.676;22.650;2023-07-09T06:07:46;11.73;;;7.65;;
72125;SDS011;59999;51.676;22.650;2023-07-09T06:10:12;12.20;;;7.57;;
72125;SDS011;59999;51.676;22.650;2023-07-09T06:12:39;10.75;;;7.35;;
72125;SDS011;59999;51.676;22.650;2023-07-09T06:15:05;9.70;;;7.10;;
72125;SDS011;59999;51.676;22.650;2023-07-09T06:17:32;12.18;;;7.10;;
72125;SDS011;59999;51.676;22.650;2023-07-09T06:19:59;10.05;;;6.88;;
72125;SDS011;59999;51.676;22.650;2023-07-09T06:22:25;9.57;;;6.85;;
72125;SDS011;59999;51.676;22.650;2023-07-09T06:24:51;10.43;;;6.70;;
72125;SDS011;59999;51.676;22.650;2023-07-09T06:27:17;8.85;;;6.10;;
72125;SDS011;59999;51.676;22.650;2023-07-09T06:29:43;10.25;;;6.28;;
72125;SDS011;59999;51.676;22.650;2023-07-09T06:32:09;10.97;;;6.40;;
72125;SDS011;59999;51.676;22.650;2023-07-09T06:34:35;10.45;;;6.45;;
72125;SDS011;59999;51.676;22.650;2023-07-09T06:37:01;11.80;;;6.32;;
72125;SDS011;59999;51.676;22.650;2023-07-09T06:39:27;12.27;;;6.40;;
72125;SDS011;59999;51.676;22.650;2023-07-09T06:41:53;10.07;;;6.00;;
72125;SDS011;59999;51.676;22.650;2023-07-09T06:44:19;9.98;;;5.35;;
72125;SDS011;59999;51.676;22.650;2023-07-09T06:46:45;8.18;;;5.82;;
72125;SDS011;59999;51.676;22.650;2023-07-09T06:49:11;10.43;;;5.50;;
72125;SDS011;59999;51.676;22.650;2023-07-09T06:51:37;10.20;;;5.78;;
72125;SDS011;59999;51.676;22.650;2023-07-09T06:54:03;9.82;;;5.78;;
72125;SDS011;59999;51.676;22.650;2023-07-09T06:56:30;8.45;;;5.10;;
72125;SDS011;59999;51.676;22.650;2023-07-09T06:58:56;8.03;;;5.10;;
72125;SDS011;59999;51.676;22.650;2023-07-09T07:01:23;9.00;;;5.53;;
72125;SDS011;59999;51.676;22.650;2023-07-09T07:03:48;8.48;;;5.00;;
72125;SDS011;59999;51.676;22.650;2023-07-09T07:06:14;8.23;;;5.20;;
72125;SDS011;59999;51.676;22.650;2023-07-09T07:08:41;10.50;;;5.63;;
72125;SDS011;59999;51.676;22.650;2023-07-09T07:11:07;10.43;;;5.20;;
72125;SDS011;59999;51.676;22.650;2023-07-09T07:13:38;9.38;;;5.20;;
72125;SDS011;59999;51.676;22.650;2023-07-09T07:16:06;7.85;;;4.90;;
72125;SDS011;59999;51.676;22.650;2023-07-09T07:18:34;8.30;;;4.50;;
72125;SDS011;59999;51.676;22.650;2023-07-09T07:21:01;8.48;;;4.40;;
72125;SDS011;59999;51.676;22.650;2023-07-09T07:23:27;7.53;;;4.93;;
72125;SDS011;59999;51.676;22.650;2023-07-09T07:25:53;8.88;;;4.65;;
72125;SDS011;59999;51.676;22.650;2023-07-09T07:28:20;10.70;;;4.80;;
72125;SDS011;59999;51.676;22.650;2023-07-09T07:30:46;7.70;;;4.50;;
72125;SDS011;59999;51.676;22.650;2023-07-09T07:33:13;7.82;;;4.60;;
72125;SDS011;59999;51.676;22.650;2023-07-09T07:35:40;7.65;;;4.60;;
72125;SDS011;59999;51.676;22.650;2023-07-09T07:38:05;6.70;;;4.37;;
72125;SDS011;59999;51.676;22.650;2023-07-09T07:40:32;8.18;;;4.70;;
72125;SDS011;59999;51.676;22.650;2023-07-09T07:42:58;6.88;;;4.05;;
72125;SDS011;59999;51.676;22.650;2023-07-09T07:45:24;8.57;;;4.60;;
72125;SDS011;59999;51.676;22.650;2023-07-09T07:47:50;9.02;;;4.50;;
72125;SDS011;59999;51.676;22.650;2023-07-09T07:50:17;8.27;;;4.13;;
72125;SDS011;59999;51.676;22.650;2023-07-09T07:52:43;7.65;;;4.00;;
72125;SDS011;59999;51.676;22.650;2023-07-09T07:55:10;8.57;;;3.80;;
72125;SDS011;59999;51.676;22.650;2023-07-09T07:57:35;10.90;;;3.80;;
72125;SDS011;59999;51.676;22.650;2023-07-09T08:00:02;6.28;;;3.97;;
72125;SDS011;59999;51.676;22.650;2023-07-09T08:02:28;9.13;;;3.85;;
72125;SDS011;59999;51.676;22.650;2023-07-09T08:04:54;8.05;;;3.90;;
72125;SDS011;59999;51.676;22.650;2023-07-09T08:07:20;6.47;;;3.67;;
72125;SDS011;59999;51.676;22.650;2023-07-09T08:09:46;7.22;;;3.53;;
72125;SDS011;59999;51.676;22.650;2023-07-09T08:12:13;7.85;;;3.60;;
72125;SDS011;59999;51.676;22.650;2023-07-09T08:14:40;6.60;;;4.00;;
72125;SDS011;59999;51.676;22.650;2023-07-09T08:17:07;6.65;;;4.13;;
72125;SDS011;59999;51.676;22.650;2023-07-09T08:19:44;7.57;;;3.93;;
72125;SDS011;59999;51.676;22.650;2023-07-09T08:22:10;8.10;;;4.28;;
72125;SDS011;59999;51.676;22.650;2023-07-09T08:24:36;6.95;;;4.00;;
72125;SDS011;59999;51.676;22.650;2023-07-09T08:27:02;8.15;;;4.07;;
72125;SDS011;59999;51.676;22.650;2023-07-09T08:29:29;6.27;;;3.70;;
72125;SDS011;59999;51.676;22.650;2023-07-09T08:31:54;6.68;;;3.80;;
72125;SDS011;59999;51.676;22.650;2023-07-09T08:34:21;6.63;;;3.92;;
72125;SDS011;59999;51.676;22.650;2023-07-09T08:36:47;7.28;;;4.05;;
72125;SDS011;59999;51.676;22.650;2023-07-09T08:39:13;7.63;;;4.20;;
72125;SDS011;59999;51.676;22.650;2023-07-09T08:44:37;8.55;;;3.42;;
72125;SDS011;59999;51.676;22.650;2023-07-09T08:50:16;7.88;;;3.85;;
72125;SDS011;59999;51.676;22.650;2023-07-09T08:52:47;6.03;;;3.90;;
72125;SDS011;59999;51.676;22.650;2023-07-09T08:55:17;6.10;;;3.65;;
72125;SDS011;59999;51.676;22.650;2023-07-09T08:57:49;7.13;;;3.45;;
72125;SDS011;59999;51.676;22.650;2023-07-09T09:05:45;5.83;;;3.60;;
72125;SDS011;59999;51.676;22.650;2023-07-09T09:10:57;5.63;;;3.35;;
72125;SDS011;59999;51.676;22.650;2023-07-09T09:13:34;6.72;;;3.80;;
72125;SDS011;59999;51.676;22.650;2023-07-09T09:16:04;6.75;;;3.78;;
72125;SDS011;59999;51.676;22.650;2023-07-09T09:18:38;7.30;;;3.40;;
72125;SDS011;59999;51.676;22.650;2023-07-09T09:23:54;6.00;;;3.60;;
72125;SDS011;59999;51.676;22.650;2023-07-09T09:28:58;7.18;;;3.10;;
72125;SDS011;59999;51.676;22.650;2023-07-09T09:31:25;5.60;;;2.77;;
72125;SDS011;59999;51.676;22.650;2023-07-09T09:33:53;6.75;;;3.08;;
72125;SDS011;59999;51.676;22.650;2023-07-09T09:36:20;5.38;;;3.13;;
72125;SDS011;59999;51.676;22.650;2023-07-09T09:38:50;5.57;;;2.78;;
72125;SDS011;59999;51.676;22.650;2023-07-09T09:41:18;5.88;;;3.30;;
72125;SDS011;59999;51.676;22.650;2023-07-09T09:43:51;5.67;;;2.93;;
72125;SDS011;59999;51.676;22.650;2023-07-09T09:46:19;7.10;;;3.17;;
72125;SDS011;59999;51.676;22.650;2023-07-09T09:48:47;5.45;;;3.00;;
72125;SDS011;59999;51.676;22.650;2023-07-09T09:51:15;6.13;;;3.00;;
72125;SDS011;59999;51.676;22.650;2023-07-09T09:53:49;6.75;;;3.33;;
72125;SDS011;59999;51.676;22.650;2023-07-09T09:56:19;5.87;;;2.83;;
72125;SDS011;59999;51.676;22.650;2023-07-09T09:58:53;6.50;;;3.10;;
72125;SDS011;59999;51.676;22.650;2023-07-09T10:01:21;6.85;;;2.92;;
72125;SDS011;59999;51.676;22.650;2023-07-09T10:03:55;5.80;;;2.90;;
72125;SDS011;59999;51.676;22.650;2023-07-09T10:09:18;5.90;;;3.07;;
72125;SDS011;59999;51.676;22.650;2023-07-09T10:11:51;5.53;;;2.92;;
72125;SDS011;59999;51.676;22.650;2023-07-09T10:19:56;4.68;;;2.50;;
72125;SDS011;59999;51.676;22.650;2023-07-09T10:22:43;6.30;;;2.73;;
72125;SDS011;59999;51.676;22.650;2023-07-09T10:25:33;5.50;;;2.90;;
72125;SDS011;59999;51.676;22.650;2023-07-09T10:31:41;5.85;;;2.60;;
72125;SDS011;59999;51.676;22.650;2023-07-09T10:43:04;7.35;;;2.20;;
72125;SDS011;59999;51.676;22.650;2023-07-09T10:45:41;6.05;;;2.70;;
72125;SDS011;59999;51.676;22.650;2023-07-09T10:48:16;6.90;;;2.20;;
72125;SDS011;59999;51.676;22.650;2023-07-09T10:50:53;6.40;;;2.33;;
72125;SDS011;59999;51.676;22.650;2023-07-09T10:56:27;4.70;;;1.90;;
72125;SDS011;59999;51.676;22.650;2023-07-09T11:01:47;5.70;;;1.75;;
72125;SDS011;59999;51.676;22.650;2023-07-09T11:04:40;4.97;;;1.73;;
72125;SDS011;59999;51.676;22.650;2023-07-09T11:07:12;3.58;;;1.50;;
72125;SDS011;59999;51.676;22.650;2023-07-09T11:09:43;4.20;;;1.90;;
72125;SDS011;59999;51.676;22.650;2023-07-09T11:12:16;3.88;;;1.60;;
72125;SDS011;59999;51.676;22.650;2023-07-09T11:14:46;3.88;;;1.80;;
72125;SDS011;59999;51.676;22.650;2023-07-09T11:17:21;4.40;;;1.80;;
72125;SDS011;59999;51.676;22.650;2023-07-09T11:19:52;5.68;;;1.80;;
72125;SDS011;59999;51.676;22.650;2023-07-09T11:22:39;4.63;;;1.40;;
72125;SDS011;59999;51.676;22.650;2023-07-09T11:25:10;3.45;;;1.38;;
72125;SDS011;59999;51.676;22.650;2023-07-09T11:27:50;4.47;;;1.77;;
72125;SDS011;59999;51.676;22.650;2023-07-09T11:30:27;4.20;;;1.53;;
72125;SDS011;59999;51.676;22.650;2023-07-09T11:32:59;4.13;;;1.40;;
72125;SDS011;59999;51.676;22.650;2023-07-09T11:35:30;3.97;;;1.20;;
72125;SDS011;59999;51.676;22.650;2023-07-09T11:38:19;4.63;;;1.40;;
72125;SDS011;59999;51.676;22.650;2023-07-09T11:40:48;3.42;;;1.45;;
72125;SDS011;59999;51.676;22.650;2023-07-09T11:43:35;3.30;;;1.57;;
72125;SDS011;59999;51.676;22.650;2023-07-09T11:46:13;3.90;;;1.70;;
72125;SDS011;59999;51.676;22.650;2023-07-09T11:48:43;3.90;;;1.60;;
72125;SDS011;59999;51.676;22.650;2023-07-09T11:51:16;4.43;;;1.40;;
72125;SDS011;59999;51.676;22.650;2023-07-09T11:53:53;3.67;;;1.83;;
72125;SDS011;59999;51.676;22.650;2023-07-09T11:56:20;2.87;;;1.30;;
72125;SDS011;59999;51.676;22.650;2023-07-09T11:58:48;3.70;;;1.70;;
72125;SDS011;59999;51.676;22.650;2023-07-09T12:01:26;3.70;;;1.38;;
72125;SDS011;59999;51.676;22.650;2023-07-09T12:04:02;3.88;;;1.40;;
72125;SDS011;59999;51.676;22.650;2023-07-09T12:06:29;3.40;;;1.40;;
72125;SDS011;59999;51.676;22.650;2023-07-09T12:08:58;3.37;;;1.20;;
72125;SDS011;59999;51.676;22.650;2023-07-09T12:11:29;2.83;;;1.27;;
72125;SDS011;59999;51.676;22.650;2023-07-09T12:14:08;3.50;;;1.30;;
72125;SDS011;59999;51.676;22.650;2023-07-09T12:16:40;3.78;;;1.40;;
72125;SDS011;59999;51.676;22.650;2023-07-09T12:19:11;5.70;;;1.70;;
72125;SDS011;59999;51.676;22.650;2023-07-09T12:21:39;3.37;;;1.50;;
72125;SDS011;59999;51.676;22.650;2023-07-09T12:26:47;4.25;;;1.50;;
72125;SDS011;59999;51.676;22.650;2023-07-09T12:29:14;4.00;;;1.50;;
72125;SDS011;59999;51.676;22.650;2023-07-09T12:31:40;6.60;;;1.77;;
72125;SDS011;59999;51.676;22.650;2023-07-09T12:34:10;3.77;;;1.80;;
72125;SDS011;59999;51.676;22.650;2023-07-09T12:36:39;4.80;;;1.40;;
72125;SDS011;59999;51.676;22.650;2023-07-09T12:39:09;3.10;;;1.20;;
72125;SDS011;59999;51.676;22.650;2023-07-09T12:41:39;3.85;;;1.60;;
72125;SDS011;59999;51.676;22.650;2023-07-09T12:44:19;4.85;;;1.48;;
72125;SDS011;59999;51.676;22.650;2023-07-09T12:46:47;4.40;;;1.70;;
72125;SDS011;59999;51.676;22.650;2023-07-09T12:49:37;4.07;;;1.60;;
72125;SDS011;59999;51.676;22.650;2023-07-09T12:52:18;3.55;;;1.67;;
72125;SDS011;59999;51.676;22.650;2023-07-09T12:55:20;4.07;;;1.60;;
72125;SDS011;59999;51.676;22.650;2023-07-09T12:57:46;4.03;;;1.55;;
72125;SDS011;59999;51.676;22.650;2023-07-09T13:00:15;3.43;;;1.30;;
72125;SDS011;59999;51.676;22.650;2023-07-09T13:02:44;3.00;;;1.20;;
72125;SDS011;59999;51.676;22.650;2023-07-09T13:05:17;3.20;;;1.20;;
72125;SDS011;59999;51.676;22.650;2023-07-09T13:07:54;3.42;;;1.20;;
72125;SDS011;59999;51.676;22.650;2023-07-09T13:10:32;4.55;;;1.70;;
72125;SDS011;59999;51.676;22.650;2023-07-09T13:13:10;4.53;;;1.40;;
72125;SDS011;59999;51.676;22.650;2023-07-09T13:15:40;5.03;;;1.92;;
72125;SDS011;59999;51.676;22.650;2023-07-09T13:18:10;5.18;;;1.50;;
72125;SDS011;59999;51.676;22.650;2023-07-09T13:20:38;4.13;;;1.30;;
72125;SDS011;59999;51.676;22.650;2023-07-09T13:23:11;3.45;;;1.50;;
72125;SDS011;59999;51.676;22.650;2023-07-09T13:25:42;4.73;;;1.47;;
72125;SDS011;59999;51.676;22.650;2023-07-09T13:30:41;3.63;;;1.35;;
72125;SDS011;59999;51.676;22.650;2023-07-09T13:33:08;3.85;;;1.10;;
72125;SDS011;59999;51.676;22.650;2023-07-09T13:35:35;3.45;;;1.50;;
72125;SDS011;59999;51.676;22.650;2023-07-09T13:38:02;3.13;;;1.23;;
72125;SDS011;59999;51.676;22.650;2023-07-09T13:40:31;3.42;;;1.20;;
72125;SDS011;59999;51.676;22.650;2023-07-09T13:42:57;2.80;;;1.40;;
72125;SDS011;59999;51.676;22.650;2023-07-09T13:45:24;3.33;;;1.15;;
72125;SDS011;59999;51.676;22.650;2023-07-09T13:47:51;5.30;;;1.20;;
72125;SDS011;59999;51.676;22.650;2023-07-09T13:50:18;2.95;;;1.35;;
72125;SDS011;59999;51.676;22.650;2023-07-09T13:52:45;3.72;;;1.35;;
72125;SDS011;59999;51.676;22.650;2023-07-09T13:55:19;3.17;;;1.50;;
72125;SDS011;59999;51.676;22.650;2023-07-09T13:57:47;3.72;;;1.40;;
72125;SDS011;59999;51.676;22.650;2023-07-09T14:00:14;2.77;;;1.07;;
72125;SDS011;59999;51.676;22.650;2023-07-09T14:02:40;3.83;;;1.30;;
72125;SDS011;59999;51.676;22.650;2023-07-09T14:05:07;4.85;;;1.27;;
72125;SDS011;59999;51.676;22.650;2023-07-09T14:07:36;3.33;;;1.27;;
72125;SDS011;59999;51.676;22.650;2023-07-09T14:10:04;3.13;;;1.48;;
72125;SDS011;59999;51.676;22.650;2023-07-09T14:12:32;3.90;;;1.40;;
72125;SDS011;59999;51.676;22.650;2023-07-09T14:14:59;4.15;;;1.60;;
72125;SDS011;59999;51.676;22.650;2023-07-09T14:17:27;3.97;;;1.63;;
72125;SDS011;59999;51.676;22.650;2023-07-09T14:19:53;3.63;;;1.70;;
72125;SDS011;59999;51.676;22.650;2023-07-09T14:24:51;4.97;;;1.73;;
72125;SDS011;59999;51.676;22.650;2023-07-09T14:27:18;4.72;;;1.80;;
72125;SDS011;59999;51.676;22.650;2023-07-09T14:29:44;4.13;;;1.40;;
72125;SDS011;59999;51.676;22.650;2023-07-09T14:32:30;3.13;;;1.40;;
72125;SDS011;59999;51.676;22.650;2023-07-09T14:35:14;3.20;;;1.50;;
72125;SDS011;59999;51.676;22.650;2023-07-09T14:37:46;3.60;;;1.50;;
72125;SDS011;59999;51.676;22.650;2023-07-09T14:40:14;3.22;;;1.60;;
72125;SDS011;59999;51.676;22.650;2023-07-09T14:42:41;4.90;;;1.70;;
72125;SDS011;59999;51.676;22.650;2023-07-09T14:45:24;3.65;;;1.65;;
72125;SDS011;59999;51.676;22.650;2023-07-09T14:47:52;3.88;;;1.92;;
72125;SDS011;59999;51.676;22.650;2023-07-09T14:50:18;4.00;;;1.80;;
72125;SDS011;59999;51.676;22.650;2023-07-09T14:52:46;4.93;;;1.80;;
72125;SDS011;59999;51.676;22.650;2023-07-09T14:55:16;4.35;;;2.00;;
72125;SDS011;59999;51.676;22.650;2023-07-09T14:57:44;5.22;;;2.10;;
72125;SDS011;59999;51.676;22.650;2023-07-09T15:00:14;4.38;;;2.20;;
72125;SDS011;59999;51.676;22.650;2023-07-09T15:02:42;4.70;;;1.90;;
72125;SDS011;59999;51.676;22.650;2023-07-09T15:05:13;3.78;;;2.03;;
72125;SDS011;59999;51.676;22.650;2023-07-09T15:07:41;5.85;;;1.90;;
72125;SDS011;59999;51.676;22.650;2023-07-09T15:10:11;4.75;;;1.83;;
72125;SDS011;59999;51.676;22.650;2023-07-09T15:12:38;5.00;;;2.20;;
72125;SDS011;59999;51.676;22.650;2023-07-09T15:17:52;4.15;;;2.10;;
72125;SDS011;59999;51.676;22.650;2023-07-09T15:20:20;4.90;;;2.08;;
72125;SDS011;59999;51.676;22.650;2023-07-09T15:22:48;4.00;;;2.38;;
72125;SDS011;59999;51.676;22.650;2023-07-09T15:25:17;4.03;;;2.23;;
72125;SDS011;59999;51.676;22.650;2023-07-09T15:27:46;5.57;;;2.38;;
72125;SDS011;59999;51.676;22.650;2023-07-09T15:30:13;4.50;;;2.47;;
72125;SDS011;59999;51.676;22.650;2023-07-09T15:32:45;5.82;;;2.50;;